createdAt,value
2018-07-24T00:01:53.512Z,20.68
2018-07-24T00:04:23.167Z,20.54
2018-07-24T00:06:52.787Z,20.36
2018-07-24T00:09:22.483Z,20.39
2018-07-24T00:11:52.128Z,20.16
2018-07-24T00:14:22.136Z,20.25
2018-07-24T00:16:51.812Z,20.30
2018-07-24T00:19:21.471Z,20.26
2018-07-24T00:21:51.252Z,20.24
2018-07-24T00:24:20.960Z,20.26
2018-07-24T00:26:50.621Z,20.36
2018-07-24T00:29:20.330Z,20.39
2018-07-24T00:31:50.015Z,20.27
2018-07-24T00:34:19.648Z,20.37
2018-07-24T00:36:49.320Z,20.43
2018-07-24T00:39:18.935Z,20.50
2018-07-24T00:41:48.576Z,20.45
2018-07-24T00:44:18.256Z,20.41
2018-07-24T00:46:47.931Z,20.39
2018-07-24T00:49:17.775Z,20.33
2018-07-24T00:51:47.477Z,20.30
2018-07-24T00:54:17.161Z,20.26
2018-07-24T00:56:46.872Z,20.18
2018-07-24T00:59:16.588Z,20.18
2018-07-24T01:01:46.240Z,20.13
2018-07-24T01:04:15.912Z,20.11
2018-07-24T01:06:45.600Z,20.14
2018-07-24T01:09:15.236Z,20.14
2018-07-24T01:11:44.857Z,20.13
2018-07-24T01:14:14.575Z,20.01
2018-07-24T01:16:44.212Z,20.00
2018-07-24T01:19:13.865Z,19.88
2018-07-24T01:21:43.541Z,19.87
2018-07-24T01:24:13.207Z,19.85
2018-07-24T01:26:42.859Z,19.70
2018-07-24T01:29:12.572Z,19.52
2018-07-24T01:31:42.216Z,19.65
2018-07-24T01:34:11.948Z,19.62
2018-07-24T01:36:41.636Z,19.74
2018-07-24T01:39:11.755Z,19.73
2018-07-24T01:41:41.423Z,19.72
2018-07-24T01:44:11.071Z,19.69
2018-07-24T01:46:40.705Z,19.72
2018-07-24T01:49:10.360Z,19.72
2018-07-24T01:51:40.009Z,19.66
2018-07-24T01:54:09.632Z,19.73
2018-07-24T01:56:39.311Z,19.71
2018-07-24T01:59:08.959Z,19.61
2018-07-24T02:01:38.576Z,19.66
2018-07-24T02:04:08.262Z,19.58
2018-07-24T02:06:37.895Z,19.58
2018-07-24T02:09:09.567Z,19.54
2018-07-24T02:11:39.200Z,19.49
2018-07-24T02:14:09.419Z,19.43
2018-07-24T02:16:39.067Z,19.40
2018-07-24T02:19:08.699Z,19.36
2018-07-24T02:21:38.395Z,19.35
2018-07-24T02:24:08.104Z,19.37
2018-07-24T02:26:37.807Z,19.36
2018-07-24T02:29:07.477Z,19.33
2018-07-24T02:31:37.184Z,19.31
2018-07-24T02:34:07.116Z,19.28
2018-07-24T02:36:36.772Z,19.29
2018-07-24T02:39:10.070Z,19.26
2018-07-24T02:41:39.733Z,19.25
2018-07-24T02:44:09.610Z,19.18
2018-07-24T02:46:39.310Z,19.20
2018-07-24T02:49:08.968Z,19.20
2018-07-24T02:51:38.630Z,19.17
2018-07-24T02:54:08.310Z,19.09
2018-07-24T02:56:37.977Z,19.07
2018-07-24T02:59:07.839Z,19.08
2018-07-24T03:01:37.533Z,19.06
2018-07-24T03:04:07.279Z,19.06
2018-07-24T03:06:37.330Z,19.02
2018-07-24T03:09:08.989Z,18.97
2018-07-24T03:11:38.841Z,18.94
2018-07-24T03:14:08.935Z,18.92
2018-07-24T03:16:38.686Z,18.90
2018-07-24T03:19:08.356Z,18.87
2018-07-24T03:21:38.072Z,18.83
2018-07-24T03:24:07.736Z,18.80
2018-07-24T03:26:37.453Z,18.76
2018-07-24T03:29:07.112Z,18.73
2018-07-24T03:31:36.769Z,18.71
2018-07-24T03:34:06.457Z,18.69
2018-07-24T03:36:36.145Z,18.66
2018-07-24T03:39:09.012Z,18.64
2018-07-24T03:41:38.692Z,18.63
2018-07-24T03:44:08.371Z,18.61
2018-07-24T03:46:38.000Z,18.57
2018-07-24T03:49:07.651Z,18.57
2018-07-24T03:51:37.390Z,18.55
2018-07-24T03:54:07.123Z,18.57
2018-07-24T03:56:36.767Z,18.55
2018-07-24T03:59:06.449Z,18.52
2018-07-24T04:01:36.132Z,18.52
2018-07-24T04:04:05.777Z,18.55
2018-07-24T04:06:35.459Z,18.52
2018-07-24T04:09:07.903Z,18.55
2018-07-24T04:11:37.645Z,18.57
2018-07-24T04:14:07.354Z,18.55
2018-07-24T04:16:37.016Z,18.57
2018-07-24T04:19:06.787Z,18.58
2018-07-24T04:21:37.313Z,18.57
2018-07-24T04:24:07.063Z,18.54
2018-07-24T04:26:36.704Z,18.61
2018-07-24T04:29:06.475Z,18.65
2018-07-24T04:31:36.164Z,18.65
2018-07-24T04:34:05.998Z,18.66
2018-07-24T04:36:35.680Z,18.64
2018-07-24T04:39:07.968Z,18.69
2018-07-24T04:41:37.884Z,18.77
2018-07-24T04:44:07.535Z,18.84
2018-07-24T04:46:37.224Z,18.90
2018-07-24T04:49:06.848Z,18.95
2018-07-24T04:51:36.459Z,18.99
2018-07-24T04:54:06.307Z,19.00
2018-07-24T04:56:35.956Z,19.03
2018-07-24T04:59:05.598Z,19.03
2018-07-24T05:01:35.290Z,19.11
2018-07-24T05:04:04.986Z,19.18
2018-07-24T05:06:34.629Z,19.24
2018-07-24T05:09:06.315Z,19.44
2018-07-24T05:11:36.061Z,19.52
2018-07-24T05:14:06.269Z,19.61
2018-07-24T05:16:35.968Z,19.69
2018-07-24T05:19:12.176Z,19.74
2018-07-24T05:21:41.817Z,19.83
2018-07-24T05:24:11.460Z,19.88
2018-07-24T05:26:41.168Z,19.94
2018-07-24T05:29:10.820Z,20.06
2018-07-24T05:31:40.472Z,20.15
2018-07-24T05:34:10.258Z,20.19
2018-07-24T05:36:39.924Z,20.36
2018-07-24T05:39:11.496Z,20.42
2018-07-24T05:41:41.877Z,20.51
2018-07-24T05:44:11.588Z,20.48
2018-07-24T05:46:41.196Z,20.71
2018-07-24T05:49:10.812Z,20.88
2018-07-24T05:51:40.468Z,20.97
2018-07-24T05:54:10.144Z,21.04
2018-07-24T05:56:39.763Z,21.17
2018-07-24T05:59:09.450Z,21.29
2018-07-24T06:01:39.112Z,21.39
2018-07-24T06:04:08.759Z,21.51
2018-07-24T06:06:38.483Z,21.63
2018-07-24T06:09:09.242Z,21.74
2018-07-24T06:11:40.810Z,21.80
2018-07-24T06:14:13.706Z,21.99
2018-07-24T06:16:43.436Z,22.09
2018-07-24T06:19:13.188Z,22.21
2018-07-24T06:21:42.943Z,22.31
2018-07-24T06:24:12.868Z,22.48
2018-07-24T06:26:42.538Z,22.60
2018-07-24T06:29:12.258Z,22.78
2018-07-24T06:31:41.944Z,22.83
2018-07-24T06:34:11.575Z,22.94
2018-07-24T06:36:41.279Z,23.21
2018-07-24T06:39:12.549Z,23.37
2018-07-24T06:41:42.813Z,23.54
2018-07-24T06:44:13.102Z,23.70
2018-07-24T06:46:42.802Z,23.81
2018-07-24T06:49:12.448Z,23.87
2018-07-24T06:51:42.181Z,24.13
2018-07-24T06:54:11.840Z,24.20
2018-07-24T06:56:41.501Z,24.36
2018-07-24T06:59:11.224Z,24.54
2018-07-24T07:01:40.844Z,24.68
2018-07-24T07:04:10.480Z,24.76
2018-07-24T07:06:40.206Z,24.81
2018-07-24T07:09:09.965Z,24.90
2018-07-24T07:11:39.656Z,25.11
2018-07-24T07:14:09.351Z,25.15
2018-07-24T07:16:39.014Z,25.32
2018-07-24T07:19:08.669Z,25.49
2018-07-24T07:21:38.415Z,25.71
2018-07-24T07:24:08.100Z,25.83
2018-07-24T07:26:37.765Z,25.85
2018-07-24T07:29:07.500Z,26.18
2018-07-24T07:31:37.233Z,26.35
2018-07-24T07:34:06.998Z,26.42
2018-07-24T07:36:36.701Z,26.52
2018-07-24T07:39:08.890Z,26.53
2018-07-24T07:41:38.787Z,26.78
2018-07-24T07:44:08.569Z,26.87
2018-07-24T07:46:38.303Z,27.03
2018-07-24T07:49:07.919Z,27.17
2018-07-24T07:51:37.578Z,27.41
2018-07-24T07:54:07.363Z,27.53
2018-07-24T07:56:37.024Z,27.63
2018-07-24T07:59:06.684Z,27.77
2018-07-24T08:01:36.396Z,27.92
2018-07-24T08:04:06.469Z,28.12
2018-07-24T08:06:36.175Z,28.17
2018-07-24T08:09:08.426Z,28.28
2018-07-24T08:11:38.281Z,28.45
2018-07-24T08:14:08.009Z,28.48
2018-07-24T08:16:37.812Z,28.52
2018-07-24T08:19:07.574Z,28.65
2018-07-24T08:21:37.232Z,28.85
2018-07-24T08:24:06.896Z,28.87
2018-07-24T08:26:36.588Z,29.02
2018-07-24T08:29:06.236Z,29.08
2018-07-24T08:31:35.917Z,29.12
2018-07-24T08:34:05.648Z,29.10
2018-07-24T08:36:35.299Z,28.99
2018-07-24T08:39:07.214Z,29.17
2018-07-24T08:41:36.896Z,29.30
2018-07-24T08:44:06.629Z,29.53
2018-07-24T08:46:36.329Z,29.70
2018-07-24T08:49:06.020Z,29.85
2018-07-24T08:51:35.740Z,29.96
2018-07-24T08:54:05.462Z,30.02
2018-07-24T08:56:35.128Z,30.03
2018-07-24T08:59:05.212Z,30.19
2018-07-24T09:01:34.833Z,30.27
2018-07-24T09:04:04.564Z,30.51
2018-07-24T09:06:34.228Z,30.70
2018-07-24T09:09:04.422Z,30.79
2018-07-24T09:11:34.052Z,30.87
2018-07-24T09:14:03.751Z,30.96
2018-07-24T09:16:33.428Z,30.94
2018-07-24T09:19:03.078Z,31.00
2018-07-24T09:21:32.749Z,31.04
2018-07-24T09:24:02.443Z,30.90
2018-07-24T09:26:32.093Z,30.73
2018-07-24T09:29:01.729Z,30.92
2018-07-24T09:31:31.457Z,31.15
2018-07-24T09:34:01.124Z,31.01
2018-07-24T09:36:30.754Z,31.26
2018-07-24T09:39:00.460Z,31.34
2018-07-24T09:41:30.112Z,31.39
2018-07-24T09:43:59.752Z,31.43
2018-07-24T09:46:29.421Z,31.60
2018-07-24T09:48:59.087Z,31.64
2018-07-24T09:51:28.728Z,31.81
2018-07-24T09:53:58.449Z,32.01
2018-07-24T09:56:28.143Z,32.11
2018-07-24T09:58:57.772Z,32.27
2018-07-24T10:01:33.193Z,32.27
2018-07-24T10:04:03.789Z,32.45
2018-07-24T10:06:34.656Z,32.34
2018-07-24T10:09:06.642Z,32.36
2018-07-24T10:11:36.312Z,32.46
2018-07-24T10:14:05.961Z,32.61
2018-07-24T10:16:35.676Z,32.59
2018-07-24T10:19:05.460Z,32.55
2018-07-24T10:21:35.090Z,32.66
2018-07-24T10:24:04.799Z,32.69
2018-07-24T10:26:34.496Z,32.66
2018-07-24T10:29:04.133Z,32.55
2018-07-24T10:31:33.832Z,32.62
2018-07-24T10:34:03.587Z,32.66
2018-07-24T10:36:33.294Z,32.88
2018-07-24T10:39:02.996Z,33.08
2018-07-24T10:50:07.839Z,33.37
2018-07-24T10:52:37.500Z,33.36
2018-07-24T10:55:07.271Z,33.16
2018-07-24T10:57:36.940Z,33.45
2018-07-24T11:00:07.082Z,33.24
2018-07-24T11:02:36.805Z,33.32
2018-07-24T11:05:06.481Z,33.56
2018-07-24T11:07:36.184Z,33.87
2018-07-24T11:10:06.114Z,33.64
2018-07-24T11:12:35.761Z,34.03
2018-07-24T11:15:05.882Z,34.26
2018-07-24T11:17:35.547Z,34.41
2018-07-24T11:20:05.580Z,34.61
2018-07-24T11:22:35.301Z,34.76
2018-07-24T11:25:04.979Z,34.80
2018-07-24T11:27:34.711Z,34.95
2018-07-24T11:30:04.517Z,34.96
2018-07-24T11:32:34.252Z,34.93
2018-07-24T11:35:04.000Z,34.41
2018-07-24T11:37:33.670Z,34.46
2018-07-24T11:40:03.504Z,34.87
2018-07-24T11:42:33.184Z,34.73
2018-07-24T11:45:02.841Z,34.87
2018-07-24T11:47:32.551Z,34.99
2018-07-24T11:50:02.180Z,34.93
2018-07-24T11:52:31.841Z,34.94
2018-07-24T11:55:01.589Z,34.99
2018-07-24T11:57:31.287Z,35.08
2018-07-24T12:00:00.976Z,35.49
2018-07-24T12:02:30.671Z,35.72
2018-07-24T12:05:00.353Z,35.54
2018-07-24T12:07:30.076Z,35.59
2018-07-24T12:09:59.740Z,35.76
2018-07-24T12:12:29.502Z,35.85
2018-07-24T12:14:59.261Z,36.05
2018-07-24T12:17:28.908Z,36.08
2018-07-24T12:19:58.604Z,36.31
2018-07-24T12:22:28.245Z,36.31
2018-07-24T12:24:57.977Z,36.20
2018-07-24T12:27:27.651Z,36.27
2018-07-24T12:29:57.336Z,36.27
2018-07-24T12:32:26.999Z,36.46
2018-07-24T12:34:56.703Z,36.26
2018-07-24T12:37:26.364Z,36.60
2018-07-24T12:39:56.071Z,36.73
2018-07-24T12:42:25.765Z,36.91
2018-07-24T12:44:55.432Z,36.93
2018-07-24T12:47:25.131Z,36.80
2018-07-24T12:49:54.891Z,36.57
2018-07-24T12:52:24.590Z,36.38
2018-07-24T12:54:54.295Z,36.59
2018-07-24T12:57:23.975Z,36.69
2018-07-24T12:59:53.863Z,36.87
2018-07-24T13:02:23.559Z,36.79
2018-07-24T13:04:53.257Z,36.89
2018-07-24T13:07:22.916Z,37.02
2018-07-24T13:09:52.667Z,36.78
2018-07-24T13:12:22.343Z,36.59
2018-07-24T13:14:52.088Z,36.86
2018-07-24T13:17:21.739Z,36.86
2018-07-24T13:19:51.374Z,36.49
2018-07-24T13:22:21.064Z,36.40
2018-07-24T13:24:50.712Z,36.39
2018-07-24T13:27:20.359Z,36.33
2018-07-24T13:29:50.024Z,36.76
2018-07-24T13:32:19.699Z,36.80
2018-07-24T13:34:49.477Z,37.07
2018-07-24T13:37:19.152Z,36.96
2018-07-24T13:39:48.787Z,37.28
2018-07-24T13:42:18.476Z,37.35
2018-07-24T13:44:48.155Z,37.41
2018-07-24T13:47:17.823Z,37.49
2018-07-24T13:49:47.490Z,37.52
2018-07-24T13:52:17.200Z,37.26
2018-07-24T13:54:46.845Z,36.76
2018-07-24T13:57:16.501Z,36.80
2018-07-24T13:59:46.188Z,37.10
2018-07-24T14:02:15.899Z,37.33
2018-07-24T14:04:45.588Z,37.49
2018-07-24T14:07:15.330Z,37.31
2018-07-24T14:09:44.992Z,37.31
2018-07-24T14:12:14.666Z,37.34
2018-07-24T14:14:44.398Z,37.35
2018-07-24T14:17:14.017Z,37.40
2018-07-24T14:19:43.679Z,37.27
2018-07-24T14:22:13.363Z,37.07
2018-07-24T14:24:43.012Z,36.83
2018-07-24T14:27:12.700Z,36.92
2018-07-24T14:29:42.335Z,37.00
2018-07-24T14:32:12.024Z,37.01
2018-07-24T14:34:41.721Z,36.88
2018-07-24T14:37:11.434Z,36.35
2018-07-24T14:39:41.103Z,36.63
2018-07-24T14:42:10.741Z,36.91
2018-07-24T14:44:40.732Z,36.83
2018-07-24T14:47:10.409Z,36.69
2018-07-24T14:49:40.015Z,36.40
2018-07-24T14:52:09.638Z,36.01
2018-07-24T14:54:39.345Z,35.86
2018-07-24T14:57:09.011Z,35.76
2018-07-24T14:59:38.829Z,35.55
2018-07-24T15:02:08.499Z,35.41
2018-07-24T15:04:38.210Z,35.26
2018-07-24T15:07:07.861Z,35.08
2018-07-24T15:09:37.498Z,35.02
2018-07-24T15:12:07.355Z,34.89
2018-07-24T15:14:36.995Z,34.72
2018-07-24T15:17:06.752Z,34.78
2018-07-24T15:19:36.371Z,34.76
2018-07-24T15:22:06.076Z,34.59
2018-07-24T15:24:35.737Z,34.38
2018-07-24T15:27:05.464Z,34.25
2018-07-24T15:29:35.132Z,34.17
2018-07-24T15:32:04.788Z,34.09
2018-07-24T15:34:34.726Z,34.00
2018-07-24T15:37:04.226Z,33.98
2018-07-24T15:39:34.796Z,33.96
2018-07-24T15:42:04.515Z,33.87
2018-07-24T15:44:34.181Z,33.88
2018-07-24T15:47:03.811Z,33.70
2018-07-24T15:49:33.443Z,33.79
2018-07-24T15:52:03.201Z,33.76
2018-07-24T15:54:33.209Z,33.73
2018-07-24T15:57:02.930Z,33.58
2018-07-24T15:59:32.607Z,33.60
2018-07-24T16:02:02.307Z,33.63
2018-07-24T16:04:31.952Z,33.66
2018-07-24T16:07:01.716Z,33.60
2018-07-24T16:09:31.396Z,33.62
2018-07-24T16:12:01.093Z,33.57
2018-07-24T16:14:30.719Z,33.52
2018-07-24T16:17:00.640Z,33.46
2018-07-24T16:19:30.332Z,33.39
2018-07-24T16:21:59.967Z,33.32
2018-07-24T16:24:29.671Z,33.25
2018-07-24T16:26:59.348Z,33.21
2018-07-24T16:29:28.991Z,33.26
2018-07-24T16:31:58.664Z,33.22
2018-07-24T16:34:28.314Z,33.22
2018-07-24T16:36:57.972Z,33.15
2018-07-24T16:39:27.681Z,33.16
2018-07-24T16:41:57.352Z,33.14
2018-07-24T16:44:27.048Z,33.09
2018-07-24T16:46:56.754Z,33.03
2018-07-24T16:49:26.488Z,33.07
2018-07-24T16:51:56.212Z,33.04
2018-07-24T16:54:25.860Z,33.02
2018-07-24T16:56:55.572Z,32.96
2018-07-24T16:59:25.193Z,32.92
2018-07-24T17:01:54.804Z,32.81
2018-07-24T17:04:24.472Z,32.83
2018-07-24T17:06:54.115Z,32.78
2018-07-24T17:09:23.735Z,32.79
2018-07-24T17:11:53.403Z,32.74
2018-07-24T17:14:23.072Z,32.67
2018-07-24T17:16:52.722Z,32.59
2018-07-24T17:19:22.416Z,32.58
2018-07-24T17:21:52.076Z,32.55
2018-07-24T17:24:22.121Z,32.61
2018-07-24T17:26:51.757Z,32.61
2018-07-24T17:29:21.562Z,32.65
2018-07-24T17:31:51.283Z,32.59
2018-07-24T17:34:20.853Z,32.54
2018-07-24T17:36:50.527Z,32.50
2018-07-24T17:39:20.452Z,32.48
2018-07-24T17:41:50.147Z,32.43
2018-07-24T17:44:19.831Z,32.39
2018-07-24T17:46:49.480Z,32.32
2018-07-24T17:49:19.171Z,32.29
2018-07-24T17:51:48.817Z,32.22
2018-07-24T17:54:18.483Z,32.22
2018-07-24T17:56:48.095Z,32.17
2018-07-24T17:59:17.723Z,32.14
2018-07-24T18:01:47.388Z,32.09
2018-07-24T18:04:17.009Z,32.07
2018-07-24T18:06:46.654Z,31.97
2018-07-24T18:09:16.347Z,31.92
2018-07-24T18:11:45.964Z,31.88
2018-07-24T18:14:15.607Z,31.80
2018-07-24T18:16:45.296Z,31.78
2018-07-24T18:19:14.942Z,31.69
2018-07-24T18:21:44.647Z,31.63
2018-07-24T18:24:14.328Z,31.53
2018-07-24T18:26:43.948Z,31.48
2018-07-24T18:29:13.579Z,31.43
2018-07-24T18:31:43.302Z,31.35
2018-07-24T18:34:12.961Z,31.32
2018-07-24T18:36:42.754Z,31.24
2018-07-24T18:39:12.492Z,31.19
2018-07-24T18:41:42.243Z,31.13
2018-07-24T18:44:12.019Z,31.06
2018-07-24T18:46:41.776Z,31.02
2018-07-24T18:49:11.804Z,30.95
2018-07-24T18:51:41.537Z,30.91
2018-07-24T18:54:11.288Z,30.78
2018-07-24T18:56:40.917Z,30.77
2018-07-24T18:59:10.548Z,30.69
2018-07-24T19:01:40.337Z,30.64
2018-07-24T19:04:10.028Z,30.54
2018-07-24T19:06:39.660Z,30.47
2018-07-24T19:09:10.570Z,30.40
2018-07-24T19:11:40.466Z,30.30
2018-07-24T19:14:10.208Z,30.23
2018-07-24T19:16:39.872Z,30.17
2018-07-24T19:19:09.641Z,30.09
2018-07-24T19:21:39.416Z,29.96
2018-07-24T19:24:09.172Z,29.86
2018-07-24T19:26:38.841Z,29.78
2018-07-24T19:29:08.528Z,29.84
2018-07-24T19:31:38.176Z,29.77
2018-07-24T19:34:07.900Z,29.64
2018-07-24T19:36:37.590Z,29.58
2018-07-24T19:39:10.181Z,29.49
2018-07-24T19:41:40.344Z,29.51
2018-07-24T19:44:10.465Z,29.50
2018-07-24T19:46:40.180Z,29.57
2018-07-24T19:49:09.832Z,29.54
2018-07-24T19:51:39.480Z,29.48
2018-07-24T19:54:09.171Z,29.50
2018-07-24T19:56:38.849Z,29.45
2018-07-24T19:59:09.018Z,29.34
2018-07-24T20:01:38.784Z,29.20
2018-07-24T20:04:08.455Z,29.18
2018-07-24T20:06:38.232Z,29.15
2018-07-24T20:09:10.426Z,29.09
2018-07-24T20:11:40.188Z,29.05
2018-07-24T20:14:09.902Z,29.01
2018-07-24T20:16:39.588Z,28.94
2018-07-24T20:19:09.332Z,28.85
2018-07-24T20:21:39.041Z,28.77
2018-07-24T20:24:08.737Z,28.69
2018-07-24T20:26:38.502Z,28.60
2018-07-24T20:29:08.181Z,28.60
2018-07-24T20:31:37.855Z,28.56
2018-07-24T20:34:07.677Z,28.53
2018-07-24T20:36:37.381Z,28.49
2018-07-24T20:39:09.987Z,28.44
2018-07-24T20:41:39.821Z,28.41
2018-07-24T20:44:09.825Z,28.37
2018-07-24T20:46:39.484Z,28.26
2018-07-24T20:49:09.262Z,28.28
2018-07-24T20:51:38.934Z,28.21
2018-07-24T20:54:09.159Z,28.17
2018-07-24T20:56:38.852Z,28.13
2018-07-24T20:59:08.561Z,28.02
2018-07-24T21:01:38.340Z,27.95
2018-07-24T21:04:08.020Z,27.90
2018-07-24T21:06:37.733Z,27.79
2018-07-24T21:09:09.614Z,27.80
2018-07-24T21:11:40.108Z,27.70
2018-07-24T21:14:10.316Z,27.49
2018-07-24T21:16:40.067Z,27.24
2018-07-24T21:19:09.732Z,27.33
2018-07-24T21:21:39.684Z,27.33
2018-07-24T21:24:09.355Z,27.29
2018-07-24T21:26:39.105Z,27.22
2018-07-24T21:29:08.780Z,27.17
2018-07-24T21:31:38.475Z,27.13
2018-07-24T21:34:08.160Z,27.07
2018-07-24T21:36:37.856Z,27.07
2018-07-24T21:39:09.993Z,27.03
2018-07-24T21:41:39.703Z,26.97
2018-07-24T21:44:09.420Z,26.95
2018-07-24T21:46:39.119Z,26.89
2018-07-24T21:49:08.804Z,26.86
2018-07-24T21:51:38.520Z,26.77
2018-07-24T21:54:08.184Z,26.72
2018-07-24T21:56:37.852Z,26.65
2018-07-24T21:59:07.571Z,26.62
2018-07-24T22:01:37.293Z,26.58
2018-07-24T22:04:07.010Z,26.53
2018-07-24T22:06:36.703Z,26.46
2018-07-24T22:09:08.676Z,26.39
2018-07-24T22:11:38.480Z,26.36
2018-07-24T22:14:08.185Z,26.36
2018-07-24T22:16:37.883Z,26.33
2018-07-24T22:19:07.620Z,26.24
2018-07-24T22:21:37.302Z,26.14
2018-07-24T22:24:07.083Z,26.12
2018-07-24T22:26:36.772Z,26.08
2018-07-24T22:29:06.452Z,25.98
2018-07-24T22:31:36.232Z,25.90
2018-07-24T22:34:06.432Z,25.92
2018-07-24T22:36:36.176Z,25.85
2018-07-24T22:39:08.888Z,25.80
2018-07-24T22:41:38.672Z,25.78
2018-07-24T22:44:08.391Z,25.74
2018-07-24T22:46:38.204Z,25.75
2018-07-24T22:49:07.867Z,25.70
2018-07-24T22:51:37.614Z,25.70
2018-07-24T22:54:07.572Z,25.66
2018-07-24T22:56:37.393Z,25.61
2018-07-24T22:59:07.113Z,25.51
2018-07-24T23:01:39.825Z,25.43
2018-07-24T23:04:09.883Z,25.39
2018-07-24T23:06:39.553Z,25.34
2018-07-24T23:09:10.683Z,25.34
2018-07-24T23:11:40.609Z,25.36
2018-07-24T23:14:10.316Z,25.33
2018-07-24T23:16:40.012Z,25.35
2018-07-24T23:19:09.720Z,25.31
2018-07-24T23:21:39.441Z,25.32
2018-07-24T23:24:09.116Z,25.29
2018-07-24T23:26:38.795Z,25.19
2018-07-24T23:29:08.520Z,25.17
2018-07-24T23:31:38.702Z,25.19
2018-07-24T23:34:08.444Z,25.16
2018-07-24T23:36:38.221Z,25.15
2018-07-24T23:39:09.708Z,25.07
2018-07-24T23:41:39.494Z,25.04
2018-07-24T23:44:09.564Z,25.02
2018-07-24T23:46:39.748Z,25.00
2018-07-24T23:49:09.532Z,24.99
2018-07-24T23:51:39.208Z,24.97
2018-07-24T23:54:08.902Z,24.94
2018-07-24T23:56:38.619Z,24.86
2018-07-24T23:59:08.290Z,24.72
